sensor_id;sensor_type;location;lat;lon;timestamp;temperature;humidity
36924;DHT22;22841;50.252;18.688;2023-06-22T00:00:50;20.90;99.90
36924;DHT22;22841;50.252;18.688;2023-06-22T00:03:17;20.80;99.90
36924;DHT22;22841;50.252;18.688;2023-06-22T00:05:45;20.80;99.90
36924;DHT22;22841;50.252;18.688;2023-06-22T00:08:11;20.90;99.90
36924;DHT22;22841;50.252;18.688;2023-06-22T00:10:37;20.80;99.90
36924;DHT22;22841;50.252;18.688;2023-06-22T00:13:04;20.60;99.90
36924;DHT22;22841;50.252;18.688;2023-06-22T00:15:30;20.70;99.90
36924;DHT22;22841;50.252;18.688;2023-06-22T00:17:57;20.80;99.90
36924;DHT22;22841;50.252;18.688;2023-06-22T00:20:23;20.80;99.90
36924;DHT22;22841;50.252;18.688;2023-06-22T00:22:57;20.70;99.90
36924;DHT22;22841;50.252;18.688;2023-06-22T00:25:24;20.60;99.90
36924;DHT22;22841;50.252;18.688;2023-06-22T00:27:50;20.60;99.90
36924;DHT22;22841;50.252;18.688;2023-06-22T00:30:17;20.50;99.90
36924;DHT22;22841;50.252;18.688;2023-06-22T00:32:45;20.20;99.90
36924;DHT22;22841;50.252;18.688;2023-06-22T00:35:12;20.30;99.90
36924;DHT22;22841;50.252;18.688;2023-06-22T00:37:39;20.40;99.90
36924;DHT22;22841;50.252;18.688;2023-06-22T00:40:09;20.50;99.90
36924;DHT22;22841;50.252;18.688;2023-06-22T00:42:41;20.50;99.90
36924;DHT22;22841;50.252;18.688;2023-06-22T00:45:07;20.60;99.90
36924;DHT22;22841;50.252;18.688;2023-06-22T00:47:37;20.60;99.90
36924;DHT22;22841;50.252;18.688;2023-06-22T00:50:07;20.50;99.90
36924;DHT22;22841;50.252;18.688;2023-06-22T00:52:34;20.50;99.90
36924;DHT22;22841;50.252;18.688;2023-06-22T00:55:02;20.50;99.90
36924;DHT22;22841;50.252;18.688;2023-06-22T00:57:29;20.30;99.90
36924;DHT22;22841;50.252;18.688;2023-06-22T00:59:55;20.40;99.90
36924;DHT22;22841;50.252;18.688;2023-06-22T01:02:22;20.30;99.90
36924;DHT22;22841;50.252;18.688;2023-06-22T01:04:48;20.30;99.90
36924;DHT22;22841;50.252;18.688;2023-06-22T01:10:07;20.40;99.90
36924;DHT22;22841;50.252;18.688;2023-06-22T01:12:45;20.30;99.90
36924;DHT22;22841;50.252;18.688;2023-06-22T01:15:21;20.40;99.90
36924;DHT22;22841;50.252;18.688;2023-06-22T01:17:51;20.20;99.90
36924;DHT22;22841;50.252;18.688;2023-06-22T01:20:19;20.20;99.90
36924;DHT22;22841;50.252;18.688;2023-06-22T01:25:31;20.10;99.90
36924;DHT22;22841;50.252;18.688;2023-06-22T01:30:42;20.20;99.90
36924;DHT22;22841;50.252;18.688;2023-06-22T01:33:11;20.20;99.90
36924;DHT22;22841;50.252;18.688;2023-06-22T01:35:39;20.10;99.90
36924;DHT22;22841;50.252;18.688;2023-06-22T01:38:06;20.20;99.90
36924;DHT22;22841;50.252;18.688;2023-06-22T01:40:34;20.20;99.90
36924;DHT22;22841;50.252;18.688;2023-06-22T01:43:03;20.20;99.90
36924;DHT22;22841;50.252;18.688;2023-06-22T01:45:30;20.20;99.90
36924;DHT22;22841;50.252;18.688;2023-06-22T01:47:56;20.20;99.90
36924;DHT22;22841;50.252;18.688;2023-06-22T01:50:24;20.20;99.90
36924;DHT22;22841;50.252;18.688;2023-06-22T01:52:50;20.20;99.90
36924;DHT22;22841;50.252;18.688;2023-06-22T01:55:16;20.20;99.90
36924;DHT22;22841;50.252;18.688;2023-06-22T01:57:42;20.20;99.90
36924;DHT22;22841;50.252;18.688;2023-06-22T02:00:14;20.20;99.90
36924;DHT22;22841;50.252;18.688;2023-06-22T02:05:24;20.10;99.90
36924;DHT22;22841;50.252;18.688;2023-06-22T02:08:07;20.10;99.90
36924;DHT22;22841;50.252;18.688;2023-06-22T02:10:36;20.00;99.90
36924;DHT22;22841;50.252;18.688;2023-06-22T02:13:06;19.90;99.90
36924;DHT22;22841;50.252;18.688;2023-06-22T02:15:33;19.90;99.90
36924;DHT22;22841;50.252;18.688;2023-06-22T02:18:00;19.90;99.90
36924;DHT22;22841;50.252;18.688;2023-06-22T02:20:26;19.90;99.90
36924;DHT22;22841;50.252;18.688;2023-06-22T02:22:53;19.90;99.90
36924;DHT22;22841;50.252;18.688;2023-06-22T02:25:19;19.90;99.90
36924;DHT22;22841;50.252;18.688;2023-06-22T02:27:45;19.90;99.90
36924;DHT22;22841;50.252;18.688;2023-06-22T02:30:12;19.90;99.90
36924;DHT22;22841;50.252;18.688;2023-06-22T02:32:38;19.80;99.90
36924;DHT22;22841;50.252;18.688;2023-06-22T02:35:10;19.80;99.90
36924;DHT22;22841;50.252;18.688;2023-06-22T02:37:37;19.70;99.90
36924;DHT22;22841;50.252;18.688;2023-06-22T02:40:08;19.70;99.90
36924;DHT22;22841;50.252;18.688;2023-06-22T02:42:35;19.70;99.90
36924;DHT22;22841;50.252;18.688;2023-06-22T02:45:01;19.70;99.90
36924;DHT22;22841;50.252;18.688;2023-06-22T02:47:28;19.60;99.90
36924;DHT22;22841;50.252;18.688;2023-06-22T02:49:54;19.70;99.90
36924;DHT22;22841;50.252;18.688;2023-06-22T02:52:20;19.70;99.90
36924;DHT22;22841;50.252;18.688;2023-06-22T02:54:46;19.60;99.90
36924;DHT22;22841;50.252;18.688;2023-06-22T02:57:12;19.70;99.90
36924;DHT22;22841;50.252;18.688;2023-06-22T02:59:40;19.70;99.90
36924;DHT22;22841;50.252;18.688;2023-06-22T03:02:08;19.70;99.90
36924;DHT22;22841;50.252;18.688;2023-06-22T03:04:35;19.70;99.90
36924;DHT22;22841;50.252;18.688;2023-06-22T03:07:01;19.60;99.90
36924;DHT22;22841;50.252;18.688;2023-06-22T03:09:28;19.60;99.90
36924;DHT22;22841;50.252;18.688;2023-06-22T03:11:55;19.60;99.90
36924;DHT22;22841;50.252;18.688;2023-06-22T03:14:21;19.60;99.90
36924;DHT22;22841;50.252;18.688;2023-06-22T03:16:47;19.70;99.90
36924;DHT22;22841;50.252;18.688;2023-06-22T03:19:13;19.80;99.90
36924;DHT22;22841;50.252;18.688;2023-06-22T03:21:40;19.80;99.90
36924;DHT22;22841;50.252;18.688;2023-06-22T03:24:07;19.80;99.90
36924;DHT22;22841;50.252;18.688;2023-06-22T03:26:33;19.80;99.90
36924;DHT22;22841;50.252;18.688;2023-06-22T03:29:00;19.90;99.90
36924;DHT22;22841;50.252;18.688;2023-06-22T03:31:26;19.90;99.90
36924;DHT22;22841;50.252;18.688;2023-06-22T03:33:52;19.90;99.90
36924;DHT22;22841;50.252;18.688;2023-06-22T03:36:18;19.80;99.90
36924;DHT22;22841;50.252;18.688;2023-06-22T03:38:49;19.90;99.90
36924;DHT22;22841;50.252;18.688;2023-06-22T03:41:16;19.90;99.90
36924;DHT22;22841;50.252;18.688;2023-06-22T03:43:42;19.90;99.90
36924;DHT22;22841;50.252;18.688;2023-06-22T03:46:08;19.80;99.90
36924;DHT22;22841;50.252;18.688;2023-06-22T03:48:34;19.80;99.90
36924;DHT22;22841;50.252;18.688;2023-06-22T03:51:01;19.80;99.90
36924;DHT22;22841;50.252;18.688;2023-06-22T03:53:27;19.90;99.90
36924;DHT22;22841;50.252;18.688;2023-06-22T03:55:53;19.90;99.90
36924;DHT22;22841;50.252;18.688;2023-06-22T03:58:20;19.90;99.90
36924;DHT22;22841;50.252;18.688;2023-06-22T04:00:48;19.90;99.90
36924;DHT22;22841;50.252;18.688;2023-06-22T04:03:14;19.90;99.90
36924;DHT22;22841;50.252;18.688;2023-06-22T04:05:41;19.90;99.90
36924;DHT22;22841;50.252;18.688;2023-06-22T04:08:08;19.90;99.90
36924;DHT22;22841;50.252;18.688;2023-06-22T04:10:34;19.90;99.90
36924;DHT22;22841;50.252;18.688;2023-06-22T04:13:00;19.90;99.90
36924;DHT22;22841;50.252;18.688;2023-06-22T04:15:26;19.90;99.90
36924;DHT22;22841;50.252;18.688;2023-06-22T04:17:55;19.90;99.90
36924;DHT22;22841;50.252;18.688;2023-06-22T04:20:21;19.90;99.90
36924;DHT22;22841;50.252;18.688;2023-06-22T04:22:47;19.90;99.90
36924;DHT22;22841;50.252;18.688;2023-06-22T04:25:14;19.90;99.90
36924;DHT22;22841;50.252;18.688;2023-06-22T04:27:40;20.00;99.90
36924;DHT22;22841;50.252;18.688;2023-06-22T04:30:07;20.00;99.90
36924;DHT22;22841;50.252;18.688;2023-06-22T04:32:34;20.10;99.90
36924;DHT22;22841;50.252;18.688;2023-06-22T04:35:03;20.10;99.90
36924;DHT22;22841;50.252;18.688;2023-06-22T04:37:31;20.20;99.90
36924;DHT22;22841;50.252;18.688;2023-06-22T04:39:57;20.30;99.90
36924;DHT22;22841;50.252;18.688;2023-06-22T04:42:28;20.30;99.90
36924;DHT22;22841;50.252;18.688;2023-06-22T04:44:54;20.40;99.90
36924;DHT22;22841;50.252;18.688;2023-06-22T04:47:20;20.40;99.90
36924;DHT22;22841;50.252;18.688;2023-06-22T04:49:46;20.50;99.90
36924;DHT22;22841;50.252;18.688;2023-06-22T04:52:13;20.50;99.90
36924;DHT22;22841;50.252;18.688;2023-06-22T04:54:46;20.60;99.90
36924;DHT22;22841;50.252;18.688;2023-06-22T04:57:16;20.70;99.90
36924;DHT22;22841;50.252;18.688;2023-06-22T04:59:42;20.70;99.90
36924;DHT22;22841;50.252;18.688;2023-06-22T05:02:09;20.80;99.90
36924;DHT22;22841;50.252;18.688;2023-06-22T05:04:35;20.90;99.90
36924;DHT22;22841;50.252;18.688;2023-06-22T05:07:06;21.00;99.90
36924;DHT22;22841;50.252;18.688;2023-06-22T05:09:32;21.10;99.90
36924;DHT22;22841;50.252;18.688;2023-06-22T05:11:59;21.20;99.90
36924;DHT22;22841;50.252;18.688;2023-06-22T05:14:29;21.20;99.90
36924;DHT22;22841;50.252;18.688;2023-06-22T05:16:55;21.20;99.90
36924;DHT22;22841;50.252;18.688;2023-06-22T05:19:25;21.20;99.90
36924;DHT22;22841;50.252;18.688;2023-06-22T05:21:57;21.20;99.90
36924;DHT22;22841;50.252;18.688;2023-06-22T05:24:23;21.30;99.90
36924;DHT22;22841;50.252;18.688;2023-06-22T05:26:49;21.30;99.90
36924;DHT22;22841;50.252;18.688;2023-06-22T05:29:15;21.40;99.90
36924;DHT22;22841;50.252;18.688;2023-06-22T05:31:41;21.40;99.90
36924;DHT22;22841;50.252;18.688;2023-06-22T05:34:07;21.40;99.90
36924;DHT22;22841;50.252;18.688;2023-06-22T05:36:33;21.40;99.90
36924;DHT22;22841;50.252;18.688;2023-06-22T05:39:11;21.40;99.90
36924;DHT22;22841;50.252;18.688;2023-06-22T05:41:38;21.50;99.90
36924;DHT22;22841;50.252;18.688;2023-06-22T05:44:04;21.40;99.90
36924;DHT22;22841;50.252;18.688;2023-06-22T05:46:30;21.50;99.90
36924;DHT22;22841;50.252;18.688;2023-06-22T05:48:56;21.50;99.90
36924;DHT22;22841;50.252;18.688;2023-06-22T05:51:23;21.50;99.90
36924;DHT22;22841;50.252;18.688;2023-06-22T05:53:49;21.50;99.90
36924;DHT22;22841;50.252;18.688;2023-06-22T05:56:16;21.60;99.90
36924;DHT22;22841;50.252;18.688;2023-06-22T05:58:43;21.70;99.90
36924;DHT22;22841;50.252;18.688;2023-06-22T06:01:09;21.70;99.90
36924;DHT22;22841;50.252;18.688;2023-06-22T06:03:35;21.80;99.90
36924;DHT22;22841;50.252;18.688;2023-06-22T06:06:07;21.80;99.90
36924;DHT22;22841;50.252;18.688;2023-06-22T06:08:33;21.90;99.90
36924;DHT22;22841;50.252;18.688;2023-06-22T06:11:00;21.90;99.90
36924;DHT22;22841;50.252;18.688;2023-06-22T06:13:26;22.00;99.90
36924;DHT22;22841;50.252;18.688;2023-06-22T06:15:52;22.00;99.90
36924;DHT22;22841;50.252;18.688;2023-06-22T06:18:21;22.00;99.90
36924;DHT22;22841;50.252;18.688;2023-06-22T06:20:47;22.10;99.90
36924;DHT22;22841;50.252;18.688;2023-06-22T06:23:13;22.10;99.90
36924;DHT22;22841;50.252;18.688;2023-06-22T06:25:39;22.20;99.90
36924;DHT22;22841;50.252;18.688;2023-06-22T06:28:05;22.30;99.90
36924;DHT22;22841;50.252;18.688;2023-06-22T06:30:32;22.40;99.90
36924;DHT22;22841;50.252;18.688;2023-06-22T06:32:58;22.50;99.90
36924;DHT22;22841;50.252;18.688;2023-06-22T06:35:24;22.60;99.90
36924;DHT22;22841;50.252;18.688;2023-06-22T06:37:50;22.70;99.90
36924;DHT22;22841;50.252;18.688;2023-06-22T06:40:18;22.80;99.90
36924;DHT22;22841;50.252;18.688;2023-06-22T06:42:46;22.80;99.90
36924;DHT22;22841;50.252;18.688;2023-06-22T06:45:17;22.90;99.90
36924;DHT22;22841;50.252;18.688;2023-06-22T06:47:43;23.00;99.90
36924;DHT22;22841;50.252;18.688;2023-06-22T06:50:10;23.10;99.90
36924;DHT22;22841;50.252;18.688;2023-06-22T06:52:36;23.20;99.90
36924;DHT22;22841;50.252;18.688;2023-06-22T06:55:02;23.30;99.90
36924;DHT22;22841;50.252;18.688;2023-06-22T06:57:38;23.40;99.90
36924;DHT22;22841;50.252;18.688;2023-06-22T07:00:06;23.40;99.90
36924;DHT22;22841;50.252;18.688;2023-06-22T07:02:35;23.50;99.90
36924;DHT22;22841;50.252;18.688;2023-06-22T07:05:02;23.60;99.90
36924;DHT22;22841;50.252;18.688;2023-06-22T07:07:31;23.70;99.90
36924;DHT22;22841;50.252;18.688;2023-06-22T07:09:57;23.80;99.90
36924;DHT22;22841;50.252;18.688;2023-06-22T07:12:23;23.90;99.90
36924;DHT22;22841;50.252;18.688;2023-06-22T07:14:49;23.90;99.90
36924;DHT22;22841;50.252;18.688;2023-06-22T07:17:16;24.00;99.90
36924;DHT22;22841;50.252;18.688;2023-06-22T07:19:43;24.10;99.90
36924;DHT22;22841;50.252;18.688;2023-06-22T07:22:09;24.10;99.90
36924;DHT22;22841;50.252;18.688;2023-06-22T07:24:35;24.20;99.90
36924;DHT22;22841;50.252;18.688;2023-06-22T07:27:01;24.20;99.90
36924;DHT22;22841;50.252;18.688;2023-06-22T07:29:28;24.30;99.90
36924;DHT22;22841;50.252;18.688;2023-06-22T07:31:55;24.30;99.90
36924;DHT22;22841;50.252;18.688;2023-06-22T07:34:22;24.50;99.90
36924;DHT22;22841;50.252;18.688;2023-06-22T07:36:48;24.50;99.90
36924;DHT22;22841;50.252;18.688;2023-06-22T07:39:14;24.60;99.90
36924;DHT22;22841;50.252;18.688;2023-06-22T07:41:41;24.70;99.90
36924;DHT22;22841;50.252;18.688;2023-06-22T07:44:07;24.80;99.90
36924;DHT22;22841;50.252;18.688;2023-06-22T07:46:33;24.80;99.90
36924;DHT22;22841;50.252;18.688;2023-06-22T07:48:59;24.80;99.90
36924;DHT22;22841;50.252;18.688;2023-06-22T07:51:27;24.80;99.90
36924;DHT22;22841;50.252;18.688;2023-06-22T07:53:53;24.90;99.90
36924;DHT22;22841;50.252;18.688;2023-06-22T07:56:19;24.90;99.90
36924;DHT22;22841;50.252;18.688;2023-06-22T07:58:46;24.90;99.90
36924;DHT22;22841;50.252;18.688;2023-06-22T08:01:14;25.00;99.90
36924;DHT22;22841;50.252;18.688;2023-06-22T08:03:40;25.10;99.90
36924;DHT22;22841;50.252;18.688;2023-06-22T08:06:07;25.20;99.90
36924;DHT22;22841;50.252;18.688;2023-06-22T08:08:36;25.20;99.90
36924;DHT22;22841;50.252;18.688;2023-06-22T08:11:02;25.40;99.90
36924;DHT22;22841;50.252;18.688;2023-06-22T08:13:28;25.40;99.90
36924;DHT22;22841;50.252;18.688;2023-06-22T08:15:55;25.50;99.90
36924;DHT22;22841;50.252;18.688;2023-06-22T08:18:21;25.60;99.90
36924;DHT22;22841;50.252;18.688;2023-06-22T08:20:47;25.60;99.90
36924;DHT22;22841;50.252;18.688;2023-06-22T08:23:13;25.60;99.90
36924;DHT22;22841;50.252;18.688;2023-06-22T08:25:39;25.60;99.90
36924;DHT22;22841;50.252;18.688;2023-06-22T08:28:06;25.70;99.90
36924;DHT22;22841;50.252;18.688;2023-06-22T08:30:33;25.70;99.90
36924;DHT22;22841;50.252;18.688;2023-06-22T08:32:59;25.80;99.90
36924;DHT22;22841;50.252;18.688;2023-06-22T08:35:25;25.80;99.90
36924;DHT22;22841;50.252;18.688;2023-06-22T08:37:53;25.90;99.90
36924;DHT22;22841;50.252;18.688;2023-06-22T08:40:20;25.90;99.90
36924;DHT22;22841;50.252;18.688;2023-06-22T08:42:47;25.90;99.90
36924;DHT22;22841;50.252;18.688;2023-06-22T08:45:14;25.80;99.90
36924;DHT22;22841;50.252;18.688;2023-06-22T08:47:41;25.90;99.90
36924;DHT22;22841;50.252;18.688;2023-06-22T08:50:09;25.90;99.90
36924;DHT22;22841;50.252;18.688;2023-06-22T08:52:36;26.10;99.90
36924;DHT22;22841;50.252;18.688;2023-06-22T08:55:03;26.10;99.90
36924;DHT22;22841;50.252;18.688;2023-06-22T08:57:31;26.10;99.90
36924;DHT22;22841;50.252;18.688;2023-06-22T08:59:58;26.10;99.90
36924;DHT22;22841;50.252;18.688;2023-06-22T09:02:26;26.20;99.90
36924;DHT22;22841;50.252;18.688;2023-06-22T09:04:59;26.30;99.90
36924;DHT22;22841;50.252;18.688;2023-06-22T09:07:25;26.30;99.90
36924;DHT22;22841;50.252;18.688;2023-06-22T09:10:03;26.40;99.90
36924;DHT22;22841;50.252;18.688;2023-06-22T09:12:56;26.50;99.90
36924;DHT22;22841;50.252;18.688;2023-06-22T09:15:36;26.70;99.90
36924;DHT22;22841;50.252;18.688;2023-06-22T09:18:02;26.80;99.90
36924;DHT22;22841;50.252;18.688;2023-06-22T09:20:29;26.80;99.90
36924;DHT22;22841;50.252;18.688;2023-06-22T09:22:57;26.70;99.90
36924;DHT22;22841;50.252;18.688;2023-06-22T09:25:23;26.80;99.90
36924;DHT22;22841;50.252;18.688;2023-06-22T09:27:50;26.90;99.90
36924;DHT22;22841;50.252;18.688;2023-06-22T09:30:16;27.00;99.90
36924;DHT22;22841;50.252;18.688;2023-06-22T09:32:42;26.80;99.90
36924;DHT22;22841;50.252;18.688;2023-06-22T09:35:09;26.90;99.90
36924;DHT22;22841;50.252;18.688;2023-06-22T09:37:36;27.00;99.90
36924;DHT22;22841;50.252;18.688;2023-06-22T09:40:03;27.00;99.90
36924;DHT22;22841;50.252;18.688;2023-06-22T09:42:34;27.10;99.90
36924;DHT22;22841;50.252;18.688;2023-06-22T09:45:01;27.20;99.90
36924;DHT22;22841;50.252;18.688;2023-06-22T09:47:28;27.30;99.90
36924;DHT22;22841;50.252;18.688;2023-06-22T09:49:56;27.30;99.90
36924;DHT22;22841;50.252;18.688;2023-06-22T09:52:22;27.20;99.90
36924;DHT22;22841;50.252;18.688;2023-06-22T09:54:49;27.30;99.90
36924;DHT22;22841;50.252;18.688;2023-06-22T09:57:16;27.30;99.90
36924;DHT22;22841;50.252;18.688;2023-06-22T09:59:42;27.30;99.90
36924;DHT22;22841;50.252;18.688;2023-06-22T10:02:08;27.30;99.90
36924;DHT22;22841;50.252;18.688;2023-06-22T10:04:35;27.40;99.90
36924;DHT22;22841;50.252;18.688;2023-06-22T10:07:01;27.50;99.90
36924;DHT22;22841;50.252;18.688;2023-06-22T10:09:28;27.50;99.90
36924;DHT22;22841;50.252;18.688;2023-06-22T10:11:54;27.60;99.90
36924;DHT22;22841;50.252;18.688;2023-06-22T10:14:21;27.80;99.90
36924;DHT22;22841;50.252;18.688;2023-06-22T10:16:48;27.90;99.70
36924;DHT22;22841;50.252;18.688;2023-06-22T10:19:14;27.80;99.90
36924;DHT22;22841;50.252;18.688;2023-06-22T10:21:40;27.80;99.90
36924;DHT22;22841;50.252;18.688;2023-06-22T10:24:06;27.90;98.80
36924;DHT22;22841;50.252;18.688;2023-06-22T10:26:33;28.00;99.90
36924;DHT22;22841;50.252;18.688;2023-06-22T10:29:01;27.90;97.00
36924;DHT22;22841;50.252;18.688;2023-06-22T10:31:28;27.80;99.90
36924;DHT22;22841;50.252;18.688;2023-06-22T10:33:55;27.80;99.90
36924;DHT22;22841;50.252;18.688;2023-06-22T10:36:22;27.60;96.60
36924;DHT22;22841;50.252;18.688;2023-06-22T10:38:49;27.50;99.90
36924;DHT22;22841;50.252;18.688;2023-06-22T10:41:15;27.50;99.90
36924;DHT22;22841;50.252;18.688;2023-06-22T10:43:42;27.50;99.90
36924;DHT22;22841;50.252;18.688;2023-06-22T10:46:10;27.50;97.80
36924;DHT22;22841;50.252;18.688;2023-06-22T10:48:36;27.50;95.80
36924;DHT22;22841;50.252;18.688;2023-06-22T10:51:03;27.50;94.60
36924;DHT22;22841;50.252;18.688;2023-06-22T10:53:29;27.50;99.90
36924;DHT22;22841;50.252;18.688;2023-06-22T10:55:55;27.50;95.20
36924;DHT22;22841;50.252;18.688;2023-06-22T10:58:22;27.50;96.20
36924;DHT22;22841;50.252;18.688;2023-06-22T11:00:48;27.30;98.30
36924;DHT22;22841;50.252;18.688;2023-06-22T11:03:14;27.30;99.90
36924;DHT22;22841;50.252;18.688;2023-06-22T11:05:40;27.40;98.70
36924;DHT22;22841;50.252;18.688;2023-06-22T11:08:08;27.40;97.50
36924;DHT22;22841;50.252;18.688;2023-06-22T11:10:34;27.50;99.70
36924;DHT22;22841;50.252;18.688;2023-06-22T11:13:00;27.60;99.90
36924;DHT22;22841;50.252;18.688;2023-06-22T11:15:28;27.80;99.90
36924;DHT22;22841;50.252;18.688;2023-06-22T11:17:54;27.90;99.90
36924;DHT22;22841;50.252;18.688;2023-06-22T11:20:20;27.80;96.70
36924;DHT22;22841;50.252;18.688;2023-06-22T11:22:47;27.60;94.60
36924;DHT22;22841;50.252;18.688;2023-06-22T11:25:13;27.60;99.90
36924;DHT22;22841;50.252;18.688;2023-06-22T11:27:39;27.60;98.60
36924;DHT22;22841;50.252;18.688;2023-06-22T11:30:06;27.60;96.20
36924;DHT22;22841;50.252;18.688;2023-06-22T11:32:34;27.60;94.10
36924;DHT22;22841;50.252;18.688;2023-06-22T11:35:00;27.80;95.60
36924;DHT22;22841;50.252;18.688;2023-06-22T11:37:26;27.90;90.90
36924;DHT22;22841;50.252;18.688;2023-06-22T11:39:53;28.00;92.00
36924;DHT22;22841;50.252;18.688;2023-06-22T11:42:20;28.00;99.90
36924;DHT22;22841;50.252;18.688;2023-06-22T11:44:47;28.10;92.30
36924;DHT22;22841;50.252;18.688;2023-06-22T11:47:13;28.10;89.80
36924;DHT22;22841;50.252;18.688;2023-06-22T11:49:39;28.10;96.00
36924;DHT22;22841;50.252;18.688;2023-06-22T11:52:06;28.30;99.90
36924;DHT22;22841;50.252;18.688;2023-06-22T11:54:33;28.40;84.80
36924;DHT22;22841;50.252;18.688;2023-06-22T11:56:59;28.50;90.80
36924;DHT22;22841;50.252;18.688;2023-06-22T11:59:25;28.60;81.00
36924;DHT22;22841;50.252;18.688;2023-06-22T12:01:51;28.80;78.30
36924;DHT22;22841;50.252;18.688;2023-06-22T12:04:18;29.10;78.10
36924;DHT22;22841;50.252;18.688;2023-06-22T12:06:44;29.40;71.90
36924;DHT22;22841;50.252;18.688;2023-06-22T12:09:10;29.80;71.90
36924;DHT22;22841;50.252;18.688;2023-06-22T12:11:36;30.40;75.90
36924;DHT22;22841;50.252;18.688;2023-06-22T12:14:03;30.70;72.60
36924;DHT22;22841;50.252;18.688;2023-06-22T12:16:30;31.10;69.40
36924;DHT22;22841;50.252;18.688;2023-06-22T12:18:56;31.00;67.00
36924;DHT22;22841;50.252;18.688;2023-06-22T12:21:22;30.70;65.80
36924;DHT22;22841;50.252;18.688;2023-06-22T12:23:48;30.40;66.00
36924;DHT22;22841;50.252;18.688;2023-06-22T12:26:15;30.20;66.10
36924;DHT22;22841;50.252;18.688;2023-06-22T12:28:41;29.90;69.40
36924;DHT22;22841;50.252;18.688;2023-06-22T12:31:07;29.80;70.50
36924;DHT22;22841;50.252;18.688;2023-06-22T12:33:33;29.80;72.40
36924;DHT22;22841;50.252;18.688;2023-06-22T12:35:59;29.80;70.70
36924;DHT22;22841;50.252;18.688;2023-06-22T12:38:25;30.30;72.90
36924;DHT22;22841;50.252;18.688;2023-06-22T12:40:52;30.90;68.50
36924;DHT22;22841;50.252;18.688;2023-06-22T12:43:18;31.80;70.60
36924;DHT22;22841;50.252;18.688;2023-06-22T12:45:44;32.70;64.00
36924;DHT22;22841;50.252;18.688;2023-06-22T12:48:10;33.70;60.00
36924;DHT22;22841;50.252;18.688;2023-06-22T12:50:38;33.90;57.50
36924;DHT22;22841;50.252;18.688;2023-06-22T12:53:04;34.10;57.50
36924;DHT22;22841;50.252;18.688;2023-06-22T12:55:32;34.60;56.30
36924;DHT22;22841;50.252;18.688;2023-06-22T12:57:58;35.00;55.10
36924;DHT22;22841;50.252;18.688;2023-06-22T13:00:24;35.10;52.90
36924;DHT22;22841;50.252;18.688;2023-06-22T13:02:51;35.20;54.90
36924;DHT22;22841;50.252;18.688;2023-06-22T13:05:17;34.90;54.70
36924;DHT22;22841;50.252;18.688;2023-06-22T13:07:44;34.50;54.60
36924;DHT22;22841;50.252;18.688;2023-06-22T13:10:13;34.20;56.30
36924;DHT22;22841;50.252;18.688;2023-06-22T13:12:42;33.40;55.10
36924;DHT22;22841;50.252;18.688;2023-06-22T13:15:08;32.20;56.90
36924;DHT22;22841;50.252;18.688;2023-06-22T13:17:36;31.80;58.30
36924;DHT22;22841;50.252;18.688;2023-06-22T13:20:02;31.50;61.50
36924;DHT22;22841;50.252;18.688;2023-06-22T13:22:32;31.20;61.90
36924;DHT22;22841;50.252;18.688;2023-06-22T13:24:59;30.90;61.60
36924;DHT22;22841;50.252;18.688;2023-06-22T13:27:26;30.70;63.30
36924;DHT22;22841;50.252;18.688;2023-06-22T13:29:52;30.50;62.40
36924;DHT22;22841;50.252;18.688;2023-06-22T13:32:19;30.50;63.40
36924;DHT22;22841;50.252;18.688;2023-06-22T13:34:45;30.30;62.80
36924;DHT22;22841;50.252;18.688;2023-06-22T13:37:11;30.20;64.00
36924;DHT22;22841;50.252;18.688;2023-06-22T13:39:38;30.10;65.90
36924;DHT22;22841;50.252;18.688;2023-06-22T13:42:05;30.10;67.10
36924;DHT22;22841;50.252;18.688;2023-06-22T13:44:32;29.90;65.10
36924;DHT22;22841;50.252;18.688;2023-06-22T13:46:59;29.80;66.90
36924;DHT22;22841;50.252;18.688;2023-06-22T13:49:25;29.90;66.80
36924;DHT22;22841;50.252;18.688;2023-06-22T13:51:51;29.90;67.30
36924;DHT22;22841;50.252;18.688;2023-06-22T13:54:17;29.80;67.20
36924;DHT22;22841;50.252;18.688;2023-06-22T13:56:44;29.90;68.60
36924;DHT22;22841;50.252;18.688;2023-06-22T13:59:10;29.80;65.30
36924;DHT22;22841;50.252;18.688;2023-06-22T14:01:36;29.70;66.90
36924;DHT22;22841;50.252;18.688;2023-06-22T14:04:04;29.60;67.10
36924;DHT22;22841;50.252;18.688;2023-06-22T14:06:30;29.60;68.30
36924;DHT22;22841;50.252;18.688;2023-06-22T14:08:57;29.60;67.00
36924;DHT22;22841;50.252;18.688;2023-06-22T14:11:24;29.40;68.10
36924;DHT22;22841;50.252;18.688;2023-06-22T14:13:51;29.50;67.60
36924;DHT22;22841;50.252;18.688;2023-06-22T14:16:17;29.40;66.00
36924;DHT22;22841;50.252;18.688;2023-06-22T14:18:44;29.50;69.90
36924;DHT22;22841;50.252;18.688;2023-06-22T14:21:11;29.60;72.00
36924;DHT22;22841;50.252;18.688;2023-06-22T14:23:37;29.70;70.20
36924;DHT22;22841;50.252;18.688;2023-06-22T14:26:03;29.50;66.80
36924;DHT22;22841;50.252;18.688;2023-06-22T14:28:30;29.60;68.50
36924;DHT22;22841;50.252;18.688;2023-06-22T14:30:56;29.60;69.30
36924;DHT22;22841;50.252;18.688;2023-06-22T14:33:22;29.60;69.20
36924;DHT22;22841;50.252;18.688;2023-06-22T14:35:49;29.70;67.10
36924;DHT22;22841;50.252;18.688;2023-06-22T14:38:15;29.70;69.30
36924;DHT22;22841;50.252;18.688;2023-06-22T14:40:42;29.70;67.80
36924;DHT22;22841;50.252;18.688;2023-06-22T14:43:08;29.80;67.40
36924;DHT22;22841;50.252;18.688;2023-06-22T14:45:34;29.70;67.60
36924;DHT22;22841;50.252;18.688;2023-06-22T14:48:00;29.70;66.30
36924;DHT22;22841;50.252;18.688;2023-06-22T14:50:27;29.60;67.70
36924;DHT22;22841;50.252;18.688;2023-06-22T14:52:53;29.60;67.70
36924;DHT22;22841;50.252;18.688;2023-06-22T14:55:19;29.60;67.40
36924;DHT22;22841;50.252;18.688;2023-06-22T14:57:45;29.60;67.50
36924;DHT22;22841;50.252;18.688;2023-06-22T15:00:12;29.60;67.30
36924;DHT22;22841;50.252;18.688;2023-06-22T15:02:38;29.60;67.80
36924;DHT22;22841;50.252;18.688;2023-06-22T15:05:04;29.60;66.70
36924;DHT22;22841;50.252;18.688;2023-06-22T15:07:31;29.60;66.30
36924;DHT22;22841;50.252;18.688;2023-06-22T15:09:57;29.60;66.50
36924;DHT22;22841;50.252;18.688;2023-06-22T15:12:23;29.60;65.20
36924;DHT22;22841;50.252;18.688;2023-06-22T15:14:49;29.60;66.00
36924;DHT22;22841;50.252;18.688;2023-06-22T15:17:16;29.60;63.80
36924;DHT22;22841;50.252;18.688;2023-06-22T15:19:42;29.50;65.00
36924;DHT22;22841;50.252;18.688;2023-06-22T15:22:08;29.50;66.10
36924;DHT22;22841;50.252;18.688;2023-06-22T15:24:34;29.50;66.10